createdAt,value
2019-02-22T00:00:47.999Z,71.89
2019-02-22T00:03:14.659Z,71.71
2019-02-22T00:05:41.249Z,71.61
2019-02-22T00:08:07.880Z,71.74
2019-02-22T00:10:34.564Z,71.56
2019-02-22T00:13:01.173Z,71.40
2019-02-22T00:15:27.764Z,71.21
2019-02-22T00:17:54.375Z,71.15
2019-02-22T00:20:20.991Z,71.07
2019-02-22T00:22:47.671Z,71.26
2019-02-22T00:25:14.258Z,71.17
2019-02-22T00:27:40.852Z,70.82
2019-02-22T00:30:07.472Z,70.81
2019-02-22T00:32:34.172Z,70.66
2019-02-22T00:35:00.854Z,70.58
2019-02-22T00:37:27.634Z,70.43
2019-02-22T00:39:54.299Z,70.40
2019-02-22T00:42:20.996Z,70.31
2019-02-22T00:44:47.608Z,70.27
2019-02-22T00:47:14.226Z,70.66
2019-02-22T00:49:40.903Z,70.72
2019-02-22T00:52:07.504Z,70.91
2019-02-22T00:54:34.100Z,71.06
2019-02-22T00:57:00.697Z,71.26
2019-02-22T00:59:27.297Z,71.40
2019-02-22T01:01:53.932Z,71.74
2019-02-22T01:04:20.542Z,71.66
2019-02-22T01:06:47.244Z,71.69
2019-02-22T01:09:13.859Z,71.85
2019-02-22T01:11:40.500Z,72.05
2019-02-22T01:14:07.136Z,71.97
2019-02-22T01:16:33.732Z,71.94
2019-02-22T01:19:00.338Z,71.75
2019-02-22T01:21:26.936Z,71.73
2019-02-22T01:23:53.552Z,71.65
2019-02-22T01:26:20.152Z,71.76
2019-02-22T01:28:46.762Z,71.86
2019-02-22T01:31:13.359Z,71.68
2019-02-22T01:33:39.985Z,71.53
2019-02-22T01:36:06.675Z,71.42
2019-02-22T01:38:33.286Z,71.30
2019-02-22T01:40:59.965Z,71.26
2019-02-22T01:43:26.658Z,71.43
2019-02-22T01:45:53.286Z,71.64
2019-02-22T01:48:19.903Z,71.65
2019-02-22T01:50:46.557Z,72.23
2019-02-22T01:53:13.260Z,72.58
2019-02-22T01:55:39.989Z,72.76
2019-02-22T01:58:06.702Z,73.02
2019-02-22T02:00:33.437Z,73.34
2019-02-22T02:03:00.046Z,73.67
2019-02-22T02:05:26.773Z,73.83
2019-02-22T02:07:53.386Z,74.06
2019-02-22T02:10:20.025Z,74.42
2019-02-22T02:12:46.781Z,74.87
2019-02-22T02:15:13.449Z,74.68
2019-02-22T02:17:40.159Z,74.66
2019-02-22T02:20:07.069Z,74.62
2019-02-22T02:22:33.755Z,74.68
2019-02-22T02:25:00.463Z,74.60
2019-02-22T02:27:27.079Z,74.55
2019-02-22T02:29:53.722Z,74.51
2019-02-22T02:32:20.420Z,74.60
2019-02-22T02:34:47.055Z,74.87
2019-02-22T02:37:13.768Z,74.92
2019-02-22T02:39:40.494Z,74.88
2019-02-22T02:42:07.203Z,74.93
2019-02-22T02:44:33.826Z,74.80
2019-02-22T02:47:00.444Z,74.63
2019-02-22T02:49:27.075Z,74.56
2019-02-22T02:51:54.214Z,74.58
2019-02-22T02:54:20.912Z,74.59
2019-02-22T02:56:47.531Z,74.74
2019-02-22T02:59:14.154Z,74.80
2019-02-22T03:01:40.871Z,74.86
2019-02-22T03:04:07.511Z,75.29
2019-02-22T03:06:42.336Z,75.25
2019-02-22T03:09:09.677Z,75.22
2019-02-22T03:11:36.385Z,75.54
2019-02-22T03:14:03.001Z,75.68
2019-02-22T03:16:29.712Z,76.09
2019-02-22T03:18:56.416Z,76.05
2019-02-22T03:21:23.144Z,76.29
2019-02-22T03:23:49.751Z,76.55
2019-02-22T03:26:16.459Z,76.55
2019-02-22T03:28:43.070Z,76.63
2019-02-22T03:31:09.786Z,76.70
2019-02-22T03:33:36.417Z,76.67
2019-02-22T03:36:03.119Z,76.63
2019-02-22T03:38:29.824Z,76.97
2019-02-22T03:40:56.552Z,77.16
2019-02-22T03:43:23.171Z,77.42
2019-02-22T03:45:49.926Z,77.74
2019-02-22T03:48:16.616Z,77.88
2019-02-22T03:50:43.336Z,78.08
2019-02-22T03:53:19.883Z,78.21
2019-02-22T03:55:46.500Z,78.31
2019-02-22T03:58:13.137Z,78.30
2019-02-22T04:00:39.872Z,78.26
2019-02-22T04:03:06.516Z,78.49
2019-02-22T04:05:33.229Z,78.63
2019-02-22T04:07:59.974Z,78.78
2019-02-22T04:10:26.671Z,78.94
2019-02-22T04:12:53.294Z,79.02
2019-02-22T04:15:20.013Z,79.02
2019-02-22T04:17:46.719Z,79.24
2019-02-22T04:20:13.337Z,79.38
2019-02-22T04:22:39.963Z,79.36
2019-02-22T04:25:06.561Z,79.28
2019-02-22T04:27:33.177Z,79.36
2019-02-22T04:29:59.790Z,79.46
2019-02-22T04:32:26.404Z,79.73
2019-02-22T04:34:53.017Z,79.95
2019-02-22T04:37:19.665Z,79.99
2019-02-22T04:39:46.380Z,79.96
2019-02-22T04:42:13.096Z,80.05
2019-02-22T04:44:39.717Z,80.01
2019-02-22T04:47:06.378Z,80.07
2019-02-22T04:49:32.975Z,80.09
2019-02-22T04:51:59.692Z,80.27
2019-02-22T04:54:26.302Z,80.23
2019-02-22T04:56:52.934Z,80.35
2019-02-22T04:59:19.623Z,80.34
2019-02-22T05:01:46.343Z,80.27
2019-02-22T05:04:12.963Z,80.31
2019-02-22T05:06:39.679Z,80.29
2019-02-22T05:09:06.323Z,80.44
2019-02-22T05:11:33.033Z,80.39
2019-02-22T05:13:59.748Z,80.47
2019-02-22T05:16:26.356Z,80.68
2019-02-22T05:18:52.976Z,80.71
2019-02-22T05:21:19.606Z,80.75
2019-02-22T05:23:46.440Z,80.69
2019-02-22T05:26:13.140Z,80.69
2019-02-22T05:28:39.797Z,80.79
2019-02-22T05:31:06.460Z,80.79
2019-02-22T05:33:33.164Z,80.76
2019-02-22T05:35:59.800Z,80.51
2019-02-22T05:38:26.510Z,80.28
2019-02-22T05:40:53.259Z,80.30
2019-02-22T05:43:19.972Z,80.30
2019-02-22T05:45:46.623Z,80.41
2019-02-22T05:48:13.329Z,80.39
2019-02-22T05:50:40.053Z,80.45
2019-02-22T05:53:06.783Z,80.56
2019-02-22T05:55:33.522Z,80.51
2019-02-22T05:58:00.122Z,80.52
2019-02-22T06:00:26.762Z,80.52
2019-02-22T06:02:53.454Z,80.51
2019-02-22T06:05:20.092Z,80.52
2019-02-22T06:07:46.810Z,80.56
2019-02-22T06:10:13.426Z,80.65
2019-02-22T06:12:40.052Z,80.52
2019-02-22T06:15:06.653Z,80.46
2019-02-22T06:17:33.299Z,80.49
2019-02-22T06:20:00.004Z,80.49
2019-02-22T06:22:29.892Z,80.50
2019-02-22T06:24:55.189Z,80.54
2019-02-22T06:27:21.927Z,80.78
2019-02-22T06:29:49.708Z,80.77
2019-02-22T06:32:16.674Z,80.80
2019-02-22T06:34:43.561Z,80.94
2019-02-22T06:37:11.688Z,80.91
2019-02-22T06:39:38.488Z,81.02
2019-02-22T06:42:05.164Z,81.15
2019-02-22T06:44:31.883Z,81.06
2019-02-22T06:46:58.528Z,81.09
2019-02-22T06:49:25.169Z,81.14
2019-02-22T06:51:51.881Z,81.12
2019-02-22T06:54:18.537Z,80.97
2019-02-22T06:56:45.243Z,80.88
2019-02-22T06:59:11.951Z,80.78
2019-02-22T07:01:38.563Z,80.82
2019-02-22T07:04:05.189Z,80.84
2019-02-22T07:06:31.808Z,81.03
2019-02-22T07:08:58.441Z,81.06
2019-02-22T07:11:40.445Z,81.07
2019-02-22T07:14:07.141Z,81.05
2019-02-22T07:16:33.755Z,81.02
2019-02-22T07:19:00.471Z,80.99
2019-02-22T07:21:38.869Z,80.99
2019-02-22T07:23:55.707Z,80.91
2019-02-22T07:26:22.325Z,80.87
2019-02-22T07:28:49.051Z,80.79
2019-02-22T07:31:15.774Z,80.79
2019-02-22T07:33:42.888Z,80.72
2019-02-22T07:36:09.633Z,80.73
2019-02-22T07:38:36.239Z,80.63
2019-02-22T07:41:02.849Z,80.64
2019-02-22T07:43:29.499Z,80.65
2019-02-22T07:45:56.254Z,80.70
2019-02-22T07:48:22.988Z,80.62
2019-02-22T07:50:57.884Z,80.45
2019-02-22T07:53:18.206Z,80.32
2019-02-22T07:55:44.817Z,80.33
2019-02-22T07:58:11.538Z,79.97
2019-02-22T08:00:38.179Z,79.80
2019-02-22T08:03:04.802Z,79.77
2019-02-22T08:05:31.539Z,79.78
2019-02-22T08:07:58.340Z,79.83
2019-02-22T08:10:26.303Z,79.90
2019-02-22T08:12:53.090Z,79.92
2019-02-22T08:15:19.794Z,79.90
2019-02-22T08:17:46.399Z,79.89
2019-02-22T08:20:13.027Z,79.90
2019-02-22T08:22:39.732Z,79.83
2019-02-22T08:25:06.468Z,79.76
2019-02-22T08:27:33.217Z,79.68
2019-02-22T08:29:59.926Z,79.75
2019-02-22T08:32:26.596Z,79.74
2019-02-22T08:34:53.319Z,79.77
2019-02-22T08:37:20.023Z,79.80
2019-02-22T08:39:57.446Z,79.80
2019-02-22T08:42:15.243Z,79.83
2019-02-22T08:44:41.983Z,79.77
2019-02-22T08:47:08.671Z,79.73
2019-02-22T08:49:35.398Z,79.69
2019-02-22T08:52:02.032Z,79.58
2019-02-22T08:54:28.771Z,79.47
2019-02-22T08:56:55.413Z,79.42
2019-02-22T08:59:22.127Z,79.38
2019-02-22T09:01:48.770Z,79.41
2019-02-22T09:04:15.464Z,79.39
2019-02-22T09:06:42.188Z,79.77
2019-02-22T09:09:08.934Z,79.58
2019-02-22T09:11:35.563Z,79.29
2019-02-22T09:14:02.183Z,78.65
2019-02-22T09:16:28.885Z,78.21
2019-02-22T09:18:55.593Z,77.73
2019-02-22T09:21:22.257Z,77.52
2019-02-22T09:23:48.967Z,77.55
2019-02-22T09:26:15.697Z,77.39
2019-02-22T09:28:42.302Z,77.35
2019-02-22T09:31:08.923Z,77.17
2019-02-22T09:33:35.607Z,77.02
2019-02-22T09:36:02.262Z,76.91
2019-02-22T09:38:28.966Z,77.15
2019-02-22T09:40:55.594Z,77.20
2019-02-22T09:43:22.193Z,77.10
2019-02-22T09:45:48.839Z,77.09
2019-02-22T09:48:15.447Z,77.16
2019-02-22T09:50:42.182Z,77.16
2019-02-22T09:53:08.807Z,77.14
2019-02-22T09:55:35.434Z,77.16
2019-02-22T09:58:02.170Z,77.27
2019-02-22T10:00:28.900Z,77.28
2019-02-22T10:02:55.575Z,77.28
2019-02-22T10:05:22.312Z,77.30
2019-02-22T10:07:48.954Z,77.23
2019-02-22T10:10:15.679Z,77.30
2019-02-22T10:12:42.312Z,77.17
2019-02-22T10:15:09.144Z,77.25
2019-02-22T10:17:35.823Z,77.24
2019-02-22T10:20:02.524Z,77.18
2019-02-22T10:22:29.231Z,77.30
2019-02-22T10:24:55.985Z,77.35
2019-02-22T10:27:22.710Z,77.22
2019-02-22T10:29:49.439Z,77.18
2019-02-22T10:32:16.170Z,77.00
2019-02-22T10:34:42.822Z,76.97
2019-02-22T10:37:09.560Z,76.73
2019-02-22T10:39:36.172Z,76.71
2019-02-22T10:42:02.833Z,76.47
2019-02-22T10:44:29.575Z,76.43
2019-02-22T10:46:56.319Z,76.46
2019-02-22T10:49:23.047Z,76.41
2019-02-22T10:51:49.672Z,76.35
2019-02-22T10:54:16.300Z,76.35
2019-02-22T10:56:43.024Z,76.33
2019-02-22T10:59:09.649Z,76.15
2019-02-22T11:01:36.373Z,76.05
2019-02-22T11:04:03.000Z,76.09
2019-02-22T11:06:29.683Z,75.98
2019-02-22T11:08:56.279Z,75.98
2019-02-22T11:11:22.896Z,76.22
2019-02-22T11:13:49.504Z,76.44
2019-02-22T11:16:16.134Z,76.56
2019-02-22T11:18:42.732Z,76.60
2019-02-22T11:21:09.354Z,76.71
2019-02-22T11:23:35.961Z,76.85
2019-02-22T11:26:02.590Z,76.73
2019-02-22T11:28:29.210Z,76.60
2019-02-22T11:30:55.828Z,76.27
2019-02-22T11:33:22.371Z,76.01
2019-02-22T11:35:49.027Z,75.87
2019-02-22T11:38:15.627Z,75.73
2019-02-22T11:40:42.352Z,75.71
2019-02-22T11:43:09.076Z,75.65
2019-02-22T11:45:35.789Z,75.55
2019-02-22T11:48:09.209Z,75.40
2019-02-22T11:50:30.925Z,75.45
2019-02-22T11:52:57.633Z,75.49
2019-02-22T11:55:24.233Z,75.58
2019-02-22T11:57:51.059Z,75.73
2019-02-22T12:00:19.490Z,75.72
2019-02-22T12:02:46.233Z,75.79
2019-02-22T12:05:12.817Z,75.82
2019-02-22T12:07:39.423Z,75.74
2019-02-22T12:10:06.057Z,75.45
2019-02-22T12:12:32.653Z,75.36
2019-02-22T12:14:59.356Z,75.43
2019-02-22T12:17:25.989Z,75.37
2019-02-22T12:19:52.673Z,75.32
2019-02-22T12:22:19.272Z,75.30
2019-02-22T12:24:45.904Z,75.22
2019-02-22T12:27:14.200Z,75.17
2019-02-22T12:29:41.026Z,75.00
2019-02-22T12:32:07.635Z,75.01
2019-02-22T12:34:34.260Z,74.80
2019-02-22T12:37:00.964Z,74.83
2019-02-22T12:39:27.572Z,74.77
2019-02-22T12:41:54.192Z,74.62
2019-02-22T12:44:20.918Z,74.25
2019-02-22T12:46:47.522Z,74.18
2019-02-22T12:49:14.112Z,74.01
2019-02-22T12:51:40.736Z,73.52
2019-02-22T12:54:07.368Z,73.18
2019-02-22T12:59:02.538Z,72.55
2019-02-22T13:01:29.137Z,71.84
2019-02-22T13:03:55.762Z,71.32
2019-02-22T13:06:22.461Z,71.20
2019-02-22T13:08:49.080Z,71.11
2019-02-22T13:11:15.717Z,71.05
2019-02-22T13:13:42.332Z,70.89
2019-02-22T13:16:08.951Z,70.75
2019-02-22T13:18:35.566Z,70.66
2019-02-22T13:21:02.175Z,69.65
2019-02-22T13:23:28.877Z,68.53
2019-02-22T13:25:55.485Z,68.18
2019-02-22T13:28:22.144Z,67.71
2019-02-22T13:30:48.828Z,67.73
2019-02-22T13:33:15.440Z,67.04
2019-02-22T13:35:42.103Z,66.95
2019-02-22T13:38:08.805Z,67.76
2019-02-22T13:40:35.427Z,67.33
2019-02-22T13:43:02.127Z,67.58
2019-02-22T13:45:28.738Z,67.17
2019-02-22T13:47:55.649Z,67.29
2019-02-22T13:50:22.416Z,66.95
2019-02-22T13:52:49.167Z,65.27
2019-02-22T13:55:16.317Z,65.33
2019-02-22T13:57:43.057Z,65.75
2019-02-22T14:00:11.393Z,65.01
2019-02-22T14:02:38.123Z,64.57
2019-02-22T14:05:04.801Z,63.39
2019-02-22T14:07:31.459Z,63.22
2019-02-22T14:09:58.171Z,62.93
2019-02-22T14:12:25.054Z,62.58
2019-02-22T14:14:51.679Z,62.98
2019-02-22T14:17:18.316Z,63.22
2019-02-22T14:19:44.933Z,63.83
2019-02-22T14:22:11.561Z,64.13
2019-02-22T14:24:38.270Z,64.41
2019-02-22T14:27:04.987Z,63.85
2019-02-22T14:29:31.639Z,62.84
2019-02-22T14:31:58.379Z,61.86
2019-02-22T14:34:25.108Z,61.61
2019-02-22T14:36:51.914Z,61.96
2019-02-22T14:39:18.639Z,62.01
2019-02-22T14:41:45.361Z,61.58
2019-02-22T14:44:12.338Z,61.95
2019-02-22T14:46:38.985Z,62.39
2019-02-22T14:49:05.628Z,62.57
2019-02-22T14:51:32.353Z,63.01
2019-02-22T14:53:58.973Z,63.12
2019-02-22T14:56:25.691Z,62.85
2019-02-22T14:58:52.337Z,63.19
2019-02-22T15:01:19.086Z,63.31
2019-02-22T15:03:45.809Z,63.17
2019-02-22T15:06:12.573Z,63.45
2019-02-22T15:08:39.328Z,64.61
2019-02-22T15:11:06.026Z,65.09
2019-02-22T15:13:32.682Z,64.92
2019-02-22T15:16:21.755Z,64.53
2019-02-22T15:18:48.402Z,65.29
2019-02-22T15:21:15.237Z,66.72
2019-02-22T15:23:41.966Z,67.92
2019-02-22T15:26:08.636Z,68.53
2019-02-22T15:28:35.575Z,69.00
2019-02-22T15:31:02.596Z,69.44
2019-02-22T15:33:29.270Z,69.87
2019-02-22T15:35:55.981Z,70.03
2019-02-22T15:38:22.651Z,70.53
2019-02-22T15:40:49.468Z,70.18
2019-02-22T15:43:16.124Z,70.38
2019-02-22T15:45:42.882Z,70.84
2019-02-22T15:48:09.620Z,71.26
2019-02-22T15:50:36.379Z,71.46
2019-02-22T15:53:03.097Z,71.72
2019-02-22T15:55:29.768Z,72.01
2019-02-22T15:57:56.467Z,72.26
2019-02-22T16:00:24.036Z,72.34
2019-02-22T16:02:52.589Z,72.47
2019-02-22T16:05:30.779Z,72.54
2019-02-22T16:07:57.559Z,72.95
2019-02-22T16:10:24.318Z,73.01
2019-02-22T16:12:51.055Z,73.00
2019-02-22T16:15:18.026Z,73.08
2019-02-22T16:17:44.794Z,73.19
2019-02-22T16:20:11.506Z,73.69
2019-02-22T16:22:38.158Z,73.89
2019-02-22T16:25:04.983Z,73.98
2019-02-22T16:27:31.729Z,74.23
2019-02-22T16:29:59.308Z,74.32
2019-02-22T16:32:27.359Z,74.36
2019-02-22T16:34:54.033Z,74.49
2019-02-22T16:37:20.801Z,74.56
2019-02-22T16:39:47.618Z,74.69
2019-02-22T16:42:14.350Z,74.78
2019-02-22T16:44:41.317Z,74.87
2019-02-22T16:47:08.091Z,74.98
2019-02-22T16:49:35.115Z,75.06
2019-02-22T16:52:01.856Z,75.29
2019-02-22T16:54:28.523Z,75.37
2019-02-22T16:56:55.247Z,75.58
2019-02-22T16:59:22.190Z,75.69
2019-02-22T17:01:48.846Z,75.73
2019-02-22T17:04:15.519Z,75.78
2019-02-22T17:06:44.160Z,75.92
2019-02-22T17:09:10.813Z,75.92
2019-02-22T17:11:37.525Z,76.03
2019-02-22T17:14:04.258Z,76.20
2019-02-22T17:16:30.931Z,76.19
2019-02-22T17:18:57.667Z,76.20
2019-02-22T17:21:24.395Z,76.25
2019-02-22T17:23:51.130Z,76.37
2019-02-22T17:26:17.901Z,76.42
2019-02-22T17:28:44.661Z,76.47
2019-02-22T17:31:11.403Z,76.48
2019-02-22T17:33:38.076Z,76.59
2019-02-22T17:36:04.882Z,76.60
2019-02-22T17:38:31.942Z,76.59
2019-02-22T17:40:58.588Z,76.50
2019-02-22T17:43:25.368Z,76.42
2019-02-22T17:45:52.094Z,76.37
2019-02-22T17:48:19.271Z,76.46
2019-02-22T17:50:45.976Z,76.55
2019-02-22T17:53:12.757Z,76.56
2019-02-22T17:55:39.483Z,76.47
2019-02-22T17:58:06.271Z,76.35
2019-02-22T18:00:33.021Z,76.31
2019-02-22T18:02:59.785Z,76.30
2019-02-22T18:05:26.518Z,76.44
2019-02-22T18:07:53.558Z,76.46
2019-02-22T18:10:20.214Z,76.53
2019-02-22T18:12:47.072Z,76.57
2019-02-22T18:15:13.863Z,76.55
2019-02-22T18:17:40.921Z,76.52
2019-02-22T18:20:07.735Z,76.88
2019-02-22T18:22:34.799Z,77.12
2019-02-22T18:25:01.531Z,77.21
2019-02-22T18:27:28.306Z,77.25
2019-02-22T18:29:55.312Z,76.92
2019-02-22T18:32:22.082Z,75.79
2019-02-22T18:34:48.883Z,74.93
2019-02-22T18:37:15.659Z,74.86
2019-02-22T18:39:42.445Z,74.92
2019-02-22T18:42:09.223Z,74.91
2019-02-22T18:44:36.024Z,74.99
2019-02-22T18:47:02.775Z,75.15
2019-02-22T18:49:30.886Z,75.30
2019-02-22T18:51:57.600Z,75.46
2019-02-22T18:54:24.268Z,75.61
2019-02-22T18:56:51.034Z,75.68
2019-02-22T18:59:17.844Z,75.59
2019-02-22T19:01:44.610Z,75.69
2019-02-22T19:04:11.399Z,75.78
2019-02-22T19:06:38.175Z,75.89
2019-02-22T19:09:05.511Z,75.99
2019-02-22T19:11:32.307Z,76.02
2019-02-22T19:13:59.329Z,75.87
2019-02-22T19:16:26.121Z,75.81
2019-02-22T19:18:52.891Z,76.19
2019-02-22T19:21:19.675Z,76.52
2019-02-22T19:23:48.478Z,76.22
2019-02-22T19:26:15.300Z,76.14
2019-02-22T19:28:42.162Z,75.98
2019-02-22T19:31:08.978Z,74.94
2019-02-22T19:33:36.914Z,74.60
2019-02-22T19:36:03.944Z,74.50
2019-02-22T19:38:30.764Z,74.50
2019-02-22T19:40:57.606Z,74.38
2019-02-22T19:43:24.418Z,74.09
2019-02-22T19:45:51.286Z,73.79
2019-02-22T19:48:20.055Z,73.40
2019-02-22T19:50:46.717Z,73.02
2019-02-22T19:53:13.563Z,72.76
2019-02-22T19:55:41.754Z,72.65
2019-02-22T19:58:08.611Z,72.54
2019-02-22T20:00:35.412Z,72.60
2019-02-22T20:03:02.274Z,72.59
2019-02-22T20:05:29.086Z,72.36
2019-02-22T20:07:56.195Z,72.27
2019-02-22T20:10:23.026Z,71.92
2019-02-22T20:12:49.815Z,71.59
2019-02-22T20:15:19.108Z,71.54
2019-02-22T20:17:53.738Z,71.13
2019-02-22T20:20:14.915Z,70.76
2019-02-22T20:22:45.802Z,70.44
2019-02-22T20:25:12.588Z,70.21
2019-02-22T20:27:39.380Z,70.08
2019-02-22T20:30:07.225Z,69.69
2019-02-22T20:32:34.027Z,69.56
2019-02-22T20:35:01.873Z,69.48
2019-02-22T20:37:29.191Z,69.57
2019-02-22T20:39:57.352Z,69.80
2019-02-22T20:42:24.220Z,70.00
2019-02-22T20:44:51.085Z,69.95
2019-02-22T20:47:17.887Z,69.46
2019-02-22T20:49:45.550Z,69.33
2019-02-22T20:52:12.736Z,68.94
2019-02-22T20:54:39.565Z,68.51
2019-02-22T20:57:06.378Z,68.43
2019-02-22T20:59:33.217Z,68.31
2019-02-22T21:02:00.021Z,68.48
2019-02-22T21:04:26.808Z,68.47
2019-02-22T21:06:53.631Z,68.55
2019-02-22T21:09:22.029Z,68.58
2019-02-22T21:11:48.822Z,68.46
2019-02-22T21:14:18.269Z,68.42
2019-02-22T21:16:45.349Z,68.33
2019-02-22T21:19:12.512Z,68.17
2019-02-22T21:21:39.303Z,68.12
2019-02-22T21:24:06.098Z,68.19
2019-02-22T21:26:33.092Z,67.84
2019-02-22T21:28:59.881Z,67.79
2019-02-22T21:31:26.669Z,68.06
2019-02-22T21:33:53.448Z,67.87
2019-02-22T21:36:20.566Z,67.79
2019-02-22T21:38:47.315Z,67.54
2019-02-22T21:41:16.266Z,67.49
2019-02-22T21:43:42.701Z,67.25
2019-02-22T21:46:10.470Z,67.14
2019-02-22T21:48:37.204Z,67.10
2019-02-22T21:51:03.884Z,67.26
2019-02-22T21:53:30.645Z,67.20
2019-02-22T21:55:57.397Z,67.21
2019-02-22T21:58:24.043Z,67.22
2019-02-22T22:00:50.785Z,67.28
2019-02-22T22:03:17.479Z,67.40
2019-02-22T22:05:44.554Z,67.51
2019-02-22T22:08:11.283Z,67.75
2019-02-22T22:10:37.946Z,67.84
2019-02-22T22:13:04.743Z,67.80
2019-02-22T22:15:31.463Z,67.78
2019-02-22T22:17:58.222Z,67.65
2019-02-22T22:20:25.484Z,67.68
2019-02-22T22:22:52.138Z,67.71
2019-02-22T22:25:18.890Z,67.70
2019-02-22T22:27:45.649Z,67.37
2019-02-22T22:30:12.730Z,67.27
2019-02-22T22:32:39.463Z,67.02
2019-02-22T22:35:06.446Z,67.03
2019-02-22T22:37:33.201Z,66.99
2019-02-22T22:39:59.952Z,66.86
2019-02-22T22:42:26.689Z,66.71
2019-02-22T22:44:53.452Z,66.64
2019-02-22T22:47:20.097Z,66.49
2019-02-22T22:49:46.838Z,66.49
2019-02-22T22:52:13.567Z,66.46
2019-02-22T22:54:40.278Z,66.55
2019-02-22T22:57:06.885Z,66.63
2019-02-22T22:59:33.520Z,66.83
2019-02-22T23:02:00.123Z,66.55
2019-02-22T23:04:26.749Z,66.32
2019-02-22T23:06:53.458Z,66.20
2019-02-22T23:09:22.480Z,66.19
2019-02-22T23:11:50.171Z,66.23
2019-02-22T23:14:16.805Z,66.34
2019-02-22T23:16:43.423Z,66.40
2019-02-22T23:19:10.122Z,66.49
2019-02-22T23:21:36.743Z,66.55
2019-02-22T23:24:03.329Z,66.59
2019-02-22T23:26:29.925Z,66.72
2019-02-22T23:28:56.541Z,66.99
2019-02-22T23:31:23.137Z,66.93
2019-02-22T23:33:49.733Z,67.13
2019-02-22T23:36:16.367Z,67.25
2019-02-22T23:38:43.085Z,67.28
2019-02-22T23:41:09.724Z,67.34
2019-02-22T23:43:36.416Z,67.61
2019-02-22T23:46:03.059Z,67.50
2019-02-22T23:48:29.692Z,67.73
2019-02-22T23:50:56.320Z,67.89
2019-02-22T23:53:22.914Z,68.03
2019-02-22T23:55:49.605Z,68.05
2019-02-22T23:58:16.294Z,68.11
